Time;durP1;ratioP1;P1;durP2;ratioP2;P2;SDS_P1;SDS_P2;PMS_P1;PMS_P2;Temp;Humidity;BMP_temperature;BMP_pressure;BME280_temperature;BME280_humidity;BME280_pressure;Samples;Min_cycle;Max_cycle;Signal;HPM_P1;HPM_P2
2021/04/20 00:00:29;;;;;;;;;;;23.20;49.60;;;;;;1509103;77;775;-63
2021/04/20 00:02:31;;;;;;;;;;;23.30;49.60;;;;;;1510417;77;831;-65
2021/04/20 00:04:33;;;;;;;;;;;23.20;49.60;;;;;;1509299;77;1205;-64
2021/04/20 00:06:35;;;;;;;;;;;23.20;49.60;;;;;;1522627;77;797;-63
2021/04/20 00:08:37;;;;;;;;;;;23.30;49.70;;;;;;1507042;77;747;-63
2021/04/20 00:10:39;;;;;;;;;;;23.30;49.80;;;;;;1515995;77;724;-63
2021/04/20 00:12:41;;;;;;;;;;;23.20;49.60;;;;;;1502663;77;1159;-63
2021/04/20 00:14:43;;;;;;;;;;;23.20;49.60;;;;;;1501446;77;644;-63
2021/04/20 00:16:45;;;;;;;;;;;23.20;49.60;;;;;;1506498;77;1942;-63
2021/04/20 00:18:47;;;;;;;;;;;23.20;49.60;;;;;;1504318;77;859;-63
2021/04/20 00:20:49;;;;;;;;;;;23.20;49.50;;;;;;1502522;77;691;-63
2021/04/20 00:22:51;;;;;;;;;;;23.20;49.50;;;;;;1508813;77;1095;-65
2021/04/20 00:24:53;;;;;;;;;;;23.10;49.40;;;;;;1504667;77;830;-66
2021/04/20 00:26:54;;;;;;;;;;;23.20;49.40;;;;;;1512192;77;781;-63
2021/04/20 00:28:56;;;;;;;;;;;23.20;49.40;;;;;;1510505;77;721;-63
2021/04/20 00:30:58;;;;;;;;;;;23.10;49.40;;;;;;1508829;77;824;-64
2021/04/20 00:33:00;;;;;;;;;;;23.20;49.40;;;;;;1509640;77;1156;-63
2021/04/20 00:35:02;;;;;;;;;;;23.20;49.40;;;;;;1508691;77;777;-63
2021/04/20 00:37:04;;;;;;;;;;;23.20;49.50;;;;;;1508135;77;1933;-63
2021/04/20 00:39:06;;;;;;;;;;;23.20;49.60;;;;;;1502211;77;689;-64
2021/04/20 00:41:09;;;;;;;;;;;23.20;49.60;;;;;;1511846;77;825;-63
2021/04/20 00:43:10;;;;;;;;;;;23.20;49.60;;;;;;1513617;76;1132;-64
2021/04/20 00:45:13;;;;;;;;;;;23.30;49.50;;;;;;1517923;77;817;-64
2021/04/20 00:47:15;;;;;;;;;;;23.20;49.40;;;;;;1511813;77;668;-62
2021/04/20 00:49:17;;;;;;;;;;;23.20;49.40;;;;;;1513411;77;744;-64
2021/04/20 00:51:19;;;;;;;;;;;23.20;49.30;;;;;;1524463;77;817;-63
2021/04/20 00:53:21;;;;;;;;;;;23.20;49.50;;;;;;1518438;77;1162;-63
2021/04/20 00:55:23;;;;;;;;;;;23.20;49.40;;;;;;1510613;77;756;-63
2021/04/20 00:57:25;;;;;;;;;;;23.20;49.40;;;;;;1514582;77;1937;-63
2021/04/20 00:59:27;;;;;;;;;;;23.10;49.30;;;;;;1509355;77;763;-64
2021/04/20 01:01:29;;;;;;;;;;;23.20;49.50;;;;;;1522354;77;811;-63
2021/04/20 01:03:30;;;;;;;;;;;23.20;49.40;;;;;;1518449;77;1186;-64
2021/04/20 01:05:34;;;;;;;;;;;23.10;49.60;;;;;;1509783;77;728;-63
2021/04/20 01:07:36;;;;;;;;;;;23.20;49.70;;;;;;1507234;77;1866;-63
2021/04/20 01:09:38;;;;;;;;;;;23.10;49.90;;;;;;1511085;77;763;-63
2021/04/20 01:11:40;;;;;;;;;;;23.10;49.80;;;;;;1514186;77;784;-63
2021/04/20 01:13:42;;;;;;;;;;;23.10;49.80;;;;;;1507022;77;1192;-62
2021/04/20 01:15:48;;;;;;;;;;;23.10;49.90;;;;;;1508076;77;809;-63
2021/04/20 01:17:50;;;;;;;;;;;23.10;50.00;;;;;;1504532;77;1935;-64
2021/04/20 01:19:53;;;;;;;;;;;23.10;49.90;;;;;;1512748;77;697;-64
2021/04/20 01:21:55;;;;;;;;;;;23.10;50.00;;;;;;1508588;77;821;-63
2021/04/20 01:24:03;;;;;;;;;;;23.10;50.00;;;;;;1507806;77;1131;-62
2021/04/20 01:26:05;;;;;;;;;;;23.00;49.70;;;;;;1507953;77;906;-63
2021/04/20 01:28:07;;;;;;;;;;;23.10;49.70;;;;;;1502690;77;738;-62
2021/04/20 01:30:10;;;;;;;;;;;23.10;49.70;;;;;;1508344;77;786;-63
2021/04/20 01:32:12;;;;;;;;;;;23.10;49.70;;;;;;1509844;77;712;-62
2021/04/20 01:34:14;;;;;;;;;;;23.00;49.70;;;;;;1507430;77;1090;-61
2021/04/20 01:36:17;;;;;;;;;;;23.10;50.00;;;;;;1508669;77;1984;-61
2021/04/20 01:38:19;;;;;;;;;;;23.10;50.00;;;;;;1506729;77;708;-63
2021/04/20 01:40:21;;;;;;;;;;;23.10;50.10;;;;;;1508230;77;789;-63
2021/04/20 01:42:22;;;;;;;;;;;23.10;50.00;;;;;;1507672;77;772;-62
2021/04/20 01:44:24;;;;;;;;;;;23.10;49.80;;;;;;1506392;77;1162;-63
2021/04/20 01:46:26;;;;;;;;;;;23.10;49.80;;;;;;1507152;77;770;-63
2021/04/20 01:48:28;;;;;;;;;;;23.10;49.80;;;;;;1506492;77;743;-62
2021/04/20 01:50:30;;;;;;;;;;;23.10;49.70;;;;;;1501513;77;738;-63
2021/04/20 01:52:32;;;;;;;;;;;23.10;49.50;;;;;;1507280;77;763;-63
2021/04/20 01:54:34;;;;;;;;;;;23.10;49.90;;;;;;1508232;77;1098;-62
2021/04/20 01:56:36;;;;;;;;;;;23.10;50.00;;;;;;1510176;77;1941;-64
2021/04/20 01:58:38;;;;;;;;;;;23.10;49.90;;;;;;1510043;77;795;-65
2021/04/20 02:00:40;;;;;;;;;;;23.10;49.80;;;;;;1508565;77;853;-65
2021/04/20 02:02:42;;;;;;;;;;;23.10;50.20;;;;;;1507655;77;1146;-63
2021/04/20 02:04:44;;;;;;;;;;;23.10;50.00;;;;;;1511477;77;809;-63
2021/04/20 02:06:46;;;;;;;;;;;23.10;50.20;;;;;;1515593;77;816;-64
2021/04/20 02:08:48;;;;;;;;;;;23.10;50.20;;;;;;1508103;77;822;-63
2021/04/20 02:10:50;;;;;;;;;;;23.00;50.00;;;;;;1508092;77;794;-64
2021/04/20 02:12:52;;;;;;;;;;;23.00;50.00;;;;;;1507381;77;1176;-64
2021/04/20 02:14:54;;;;;;;;;;;23.00;49.90;;;;;;1504891;77;701;-65
2021/04/20 02:16:56;;;;;;;;;;;23.00;49.80;;;;;;1508629;77;1937;-64
2021/04/20 02:18:59;;;;;;;;;;;23.00;49.90;;;;;;1504698;77;1098;-64
2021/04/20 02:21:01;;;;;;;;;;;23.00;49.80;;;;;;1503224;77;1881;-66
2021/04/20 02:23:03;;;;;;;;;;;23.00;49.80;;;;;;1511423;76;1152;-64
2021/04/20 02:25:06;;;;;;;;;;;23.00;49.90;;;;;;1511224;77;784;-64
2021/04/20 02:27:08;;;;;;;;;;;22.90;49.90;;;;;;1504815;77;887;-66
2021/04/20 02:29:10;;;;;;;;;;;22.90;49.90;;;;;;1507372;77;799;-63
2021/04/20 02:31:12;;;;;;;;;;;23.00;49.80;;;;;;1509237;77;784;-65
2021/04/20 02:33:14;;;;;;;;;;;22.90;49.80;;;;;;1509708;77;1180;-64
2021/04/20 02:35:16;;;;;;;;;;;22.90;49.70;;;;;;1507261;77;668;-63
2021/04/20 02:37:18;;;;;;;;;;;22.90;50.00;;;;;;1507207;77;1950;-64
2021/04/20 02:39:20;;;;;;;;;;;22.90;50.00;;;;;;1508755;77;807;-64
2021/04/20 02:41:22;;;;;;;;;;;22.90;49.90;;;;;;1507439;77;683;-64
2021/04/20 02:43:23;;;;;;;;;;;23.00;49.80;;;;;;1509816;77;1150;-65
2021/04/20 02:45:26;;;;;;;;;;;22.90;49.80;;;;;;1511709;77;779;-64
2021/04/20 02:47:28;;;;;;;;;;;22.90;49.80;;;;;;1520225;77;742;-63
2021/04/20 02:49:31;;;;;;;;;;;22.90;49.80;;;;;;1508117;77;805;-64
2021/04/20 02:51:35;;;;;;;;;;;22.90;49.80;;;;;;1515614;77;849;-64
2021/04/20 02:53:37;;;;;;;;;;;22.90;49.80;;;;;;1508595;77;1169;-66
2021/04/20 02:55:39;;;;;;;;;;;22.90;49.80;;;;;;1512101;77;874;-64
2021/04/20 02:57:45;;;;;;;;;;;22.90;49.80;;;;;;1509869;77;1945;-63
2021/04/20 02:59:47;;;;;;;;;;;22.90;49.80;;;;;;1510489;77;723;-65
2021/04/20 03:01:49;;;;;;;;;;;22.80;49.70;;;;;;1508927;77;747;-66
2021/04/20 03:03:51;;;;;;;;;;;22.80;49.90;;;;;;1506034;77;1127;-64
2021/04/20 03:05:53;;;;;;;;;;;22.80;49.50;;;;;;1503763;77;707;-62
2021/04/20 03:07:54;;;;;;;;;;;22.90;49.50;;;;;;1502021;77;815;-64
2021/04/20 03:09:56;;;;;;;;;;;22.90;49.40;;;;;;1506877;77;823;-64
2021/04/20 03:11:58;;;;;;;;;;;22.90;49.40;;;;;;1507669;77;792;-63
2021/04/20 03:14:05;;;;;;;;;;;22.80;49.20;;;;;;1510230;77;1198;-65
2021/04/20 03:16:07;;;;;;;;;;;22.90;49.40;;;;;;1513525;77;695;-65
2021/04/20 03:18:10;;;;;;;;;;;22.80;49.20;;;;;;1509042;77;1973;-63
2021/04/20 03:20:12;;;;;;;;;;;22.90;49.40;;;;;;1503129;77;775;-64
2021/04/20 03:22:14;;;;;;;;;;;22.80;49.20;;;;;;1506301;77;773;-63
2021/04/20 03:24:23;;;;;;;;;;;22.90;49.30;;;;;;1502534;77;1104;-63
2021/04/20 03:26:26;;;;;;;;;;;22.90;49.20;;;;;;1503241;77;817;-64
2021/04/20 03:28:28;;;;;;;;;;;22.80;49.10;;;;;;1507212;77;733;-64
2021/04/20 03:30:31;;;;;;;;;;;22.80;49.10;;;;;;1507957;77;851;-64
2021/04/20 03:32:33;;;;;;;;;;;22.80;49.00;;;;;;1508846;77;894;-64
2021/04/20 03:34:35;;;;;;;;;;;22.80;49.10;;;;;;1504944;77;1112;-63
2021/04/20 03:36:38;;;;;;;;;;;22.70;49.50;;;;;;1507060;77;760;-62
2021/04/20 03:38:57;;;;;;;;;;;22.60;49.50;;;;;;1508258;77;1941;-63
2021/04/20 03:41:00;;;;;;;;;;;22.70;49.30;;;;;;1508135;77;1961;-63
2021/04/20 03:43:03;;;;;;;;;;;22.80;49.20;;;;;;1507963;77;1157;-63
2021/04/20 03:45:05;;;;;;;;;;;22.80;49.00;;;;;;1510609;77;793;-63
2021/04/20 03:47:08;;;;;;;;;;;22.80;48.90;;;;;;1506269;77;812;-62
2021/04/20 03:49:21;;;;;;;;;;;22.80;48.90;;;;;;1509440;77;718;-62
2021/04/20 03:51:26;;;;;;;;;;;22.80;48.90;;;;;;1502980;77;1066;-63
2021/04/20 03:53:28;;;;;;;;;;;22.70;48.90;;;;;;1514323;77;1177;-63
2021/04/20 03:55:30;;;;;;;;;;;22.80;48.80;;;;;;1507135;77;752;-63
2021/04/20 03:57:33;;;;;;;;;;;22.70;48.80;;;;;;1507057;77;1949;-64
2021/04/20 03:59:35;;;;;;;;;;;22.70;48.80;;;;;;1509827;77;795;-63
2021/04/20 04:01:38;;;;;;;;;;;22.70;48.80;;;;;;1504864;77;821;-62
2021/04/20 04:03:40;;;;;;;;;;;22.70;48.80;;;;;;1511907;77;1127;-63
2021/04/20 04:05:41;;;;;;;;;;;22.70;48.70;;;;;;1509506;77;724;-63
2021/04/20 04:07:43;;;;;;;;;;;22.70;48.70;;;;;;1501092;77;780;-64
2021/04/20 04:09:48;;;;;;;;;;;22.70;48.70;;;;;;1503951;77;787;-63
2021/04/20 04:11:58;;;;;;;;;;;22.70;48.80;;;;;;1499999;77;718;-62
2021/04/20 04:14:00;;;;;;;;;;;22.70;48.80;;;;;;1507337;77;1221;-63
2021/04/20 04:16:03;;;;;;;;;;;22.60;48.70;;;;;;1501903;77;744;-64
2021/04/20 04:18:09;;;;;;;;;;;22.70;49.00;;;;;;1499811;77;1949;-63
2021/04/20 04:20:14;;;;;;;;;;;22.70;48.90;;;;;;1501165;77;672;-62
2021/04/20 04:22:17;;;;;;;;;;;22.70;49.00;;;;;;1507717;77;747;-61
2021/04/20 04:24:19;;;;;;;;;;;22.70;48.90;;;;;;1508057;77;1126;-64
2021/04/20 04:26:25;;;;;;;;;;;22.70;48.90;;;;;;1506348;77;817;-63
2021/04/20 04:28:27;;;;;;;;;;;22.70;49.00;;;;;;1511675;77;724;-63
2021/04/20 04:30:29;;;;;;;;;;;22.70;49.00;;;;;;1507087;77;787;-63
2021/04/20 04:32:31;;;;;;;;;;;22.70;49.00;;;;;;1496611;77;793;-64
2021/04/20 04:34:33;;;;;;;;;;;22.60;48.90;;;;;;1508222;77;1124;-64
2021/04/20 04:36:35;;;;;;;;;;;22.70;49.00;;;;;;1511316;77;791;-64
2021/04/20 04:38:39;;;;;;;;;;;22.70;48.90;;;;;;1510008;77;1939;-64
2021/04/20 04:40:41;;;;;;;;;;;22.70;48.90;;;;;;1506649;77;1100;-63
2021/04/20 04:42:42;;;;;;;;;;;22.70;48.90;;;;;;1501586;77;1131;-64
2021/04/20 04:44:46;;;;;;;;;;;22.70;49.00;;;;;;1507391;77;761;-64
2021/04/20 04:46:48;;;;;;;;;;;22.70;48.90;;;;;;1496444;78;891;-65
2021/04/20 04:48:50;;;;;;;;;;;22.70;48.90;;;;;;1508787;77;780;-64
2021/04/20 04:50:52;;;;;;;;;;;22.70;48.90;;;;;;1507064;77;791;-64
2021/04/20 04:52:54;;;;;;;;;;;22.70;48.90;;;;;;1507878;77;1120;-63
2021/04/20 04:54:56;;;;;;;;;;;22.70;48.90;;;;;;1512012;77;814;-63
2021/04/20 04:56:58;;;;;;;;;;;22.70;49.00;;;;;;1505041;77;839;-63
2021/04/20 04:59:00;;;;;;;;;;;22.80;49.00;;;;;;1509418;77;1935;-64
2021/04/20 05:01:02;;;;;;;;;;;22.80;49.00;;;;;;1510201;77;975;-63
2021/04/20 05:03:07;;;;;;;;;;;22.80;49.00;;;;;;1510584;77;1166;-64
2021/04/20 05:05:10;;;;;;;;;;;22.70;48.90;;;;;;1511514;77;762;-60
2021/04/20 05:07:12;;;;;;;;;;;22.70;48.90;;;;;;1509552;77;962;-64
2021/04/20 05:09:14;;;;;;;;;;;22.70;49.00;;;;;;1504901;77;747;-63
2021/04/20 05:11:16;;;;;;;;;;;22.80;48.90;;;;;;1507061;77;862;-63
2021/04/20 05:13:18;;;;;;;;;;;22.80;48.80;;;;;;1499892;77;1163;-63
2021/04/20 05:15:23;;;;;;;;;;;22.80;48.80;;;;;;1502222;77;832;-64
2021/04/20 05:17:25;;;;;;;;;;;22.80;48.90;;;;;;1507158;77;1907;-63
2021/04/20 05:19:30;;;;;;;;;;;22.80;48.90;;;;;;1510958;77;820;-63
2021/04/20 05:21:32;;;;;;;;;;;22.80;48.90;;;;;;1507907;77;717;-63
2021/04/20 05:23:34;;;;;;;;;;;22.70;48.90;;;;;;1491805;77;1175;-63
2021/04/20 05:25:36;;;;;;;;;;;22.70;48.90;;;;;;1505051;77;749;-65
2021/04/20 05:27:38;;;;;;;;;;;22.80;48.80;;;;;;1506048;77;888;-63
2021/04/20 05:29:40;;;;;;;;;;;22.80;48.70;;;;;;1503551;77;752;-64
2021/04/20 05:31:42;;;;;;;;;;;22.70;48.70;;;;;;1509228;77;737;-64
2021/04/20 05:33:44;;;;;;;;;;;22.80;48.70;;;;;;1508179;77;1154;-64
2021/04/20 05:35:46;;;;;;;;;;;22.80;48.80;;;;;;1509727;77;789;-64
2021/04/20 05:37:48;;;;;;;;;;;22.70;48.70;;;;;;1501770;77;1954;-64
2021/04/20 05:39:50;;;;;;;;;;;22.70;48.60;;;;;;1500600;77;733;-66
2021/04/20 05:41:52;;;;;;;;;;;22.60;48.20;;;;;;1508128;77;741;-65
2021/04/20 05:43:54;;;;;;;;;;;22.60;49.00;;;;;;1510417;77;1068;-65
2021/04/20 05:45:56;;;;;;;;;;;22.60;49.10;;;;;;1504024;77;720;-65
2021/04/20 05:47:59;;;;;;;;;;;22.60;49.00;;;;;;1506297;77;859;-65
2021/04/20 05:50:04;;;;;;;;;;;22.50;49.00;;;;;;1511978;77;846;-64
2021/04/20 05:52:06;;;;;;;;;;;22.60;49.10;;;;;;1508726;77;755;-64
2021/04/20 05:54:09;;;;;;;;;;;22.70;49.10;;;;;;1516952;77;1092;-66
2021/04/20 05:56:11;;;;;;;;;;;22.70;48.90;;;;;;1503133;77;789;-63
2021/04/20 05:58:12;;;;;;;;;;;22.60;48.80;;;;;;1507116;77;1958;-65
2021/04/20 06:00:15;;;;;;;;;;;22.70;48.90;;;;;;1516089;77;755;-65
2021/04/20 06:02:17;;;;;;;;;;;22.80;49.00;;;;;;1509582;77;892;-64
2021/04/20 06:04:18;;;;;;;;;;;22.80;48.40;;;;;;1511109;77;1155;-66
2021/04/20 06:06:21;;;;;;;;;;;22.90;47.70;;;;;;1508274;77;786;-67
2021/04/20 06:08:23;;;;;;;;;;;23.00;47.20;;;;;;1514151;77;798;-66
2021/04/20 06:10:25;;;;;;;;;;;23.00;47.10;;;;;;1509245;77;757;-66
2021/04/20 06:12:27;;;;;;;;;;;23.00;47.20;;;;;;1516171;77;733;-67
2021/04/20 06:14:29;;;;;;;;;;;23.00;46.80;;;;;;1507394;77;1090;-67
2021/04/20 06:16:31;;;;;;;;;;;23.00;46.40;;;;;;1500430;77;1030;-67
2021/04/20 06:18:33;;;;;;;;;;;23.10;46.40;;;;;;1509977;77;1921;-67
2021/04/20 06:20:35;;;;;;;;;;;23.10;46.20;;;;;;1495804;77;776;-67
2021/04/20 06:22:37;;;;;;;;;;;23.10;46.00;;;;;;1504920;77;810;-66
2021/04/20 06:24:39;;;;;;;;;;;23.10;45.70;;;;;;1505631;77;1206;-66
2021/04/20 06:26:41;;;;;;;;;;;23.10;45.60;;;;;;1502418;77;686;-66
2021/04/20 06:28:43;;;;;;;;;;;23.00;45.20;;;;;;1498721;77;815;-66
2021/04/20 06:30:45;;;;;;;;;;;23.00;45.40;;;;;;1504616;77;836;-66
2021/04/20 06:32:47;;;;;;;;;;;22.90;45.50;;;;;;1509756;77;1178;-65
2021/04/20 06:34:49;;;;;;;;;;;22.80;45.50;;;;;;1507473;77;706;-68
2021/04/20 06:36:51;;;;;;;;;;;22.90;45.70;;;;;;1502894;77;751;-68
2021/04/20 06:38:53;;;;;;;;;;;22.90;45.80;;;;;;1508729;77;1925;-66
2021/04/20 06:40:55;;;;;;;;;;;22.80;45.70;;;;;;1507436;77;805;-66
2021/04/20 06:43:01;;;;;;;;;;;22.80;45.90;;;;;;1505752;77;1174;-67
2021/04/20 06:45:08;;;;;;;;;;;22.80;45.90;;;;;;1507915;77;680;-67
2021/04/20 06:47:11;;;;;;;;;;;22.80;46.00;;;;;;1507250;77;734;-63
2021/04/20 06:49:15;;;;;;;;;;;22.70;46.00;;;;;;1506304;77;1911;-66
2021/04/20 06:51:18;;;;;;;;;;;22.80;46.10;;;;;;1506823;77;1795;-67
2021/04/20 06:53:20;;;;;;;;;;;22.80;46.10;;;;;;1501024;77;1165;-67
2021/04/20 06:55:24;;;;;;;;;;;22.70;46.30;;;;;;1516535;77;762;-66
2021/04/20 06:57:30;;;;;;;;;;;22.80;46.40;;;;;;1512047;77;1014;-67
2021/04/20 06:59:37;;;;;;;;;;;22.70;46.50;;;;;;1502432;77;1941;-66
2021/04/20 07:01:42;;;;;;;;;;;22.60;46.50;;;;;;1499796;77;934;-66
2021/04/20 07:04:04;;;;;;;;;;;22.70;46.80;;;;;;1511706;77;1153;-69
2021/04/20 07:06:07;;;;;;;;;;;22.70;46.80;;;;;;1520057;77;935;-68
2021/04/20 07:08:11;;;;;;;;;;;22.60;46.80;;;;;;1512003;77;748;-65
2021/04/20 07:10:17;;;;;;;;;;;22.70;47.10;;;;;;1502616;77;1982;-65
2021/04/20 07:12:19;;;;;;;;;;;22.60;47.50;;;;;;1509185;77;965;-65
2021/04/20 07:14:38;;;;;;;;;;;22.50;48.90;;;;;;1510943;77;1126;-65
2021/04/20 07:16:46;;;;;;;;;;;22.60;48.70;;;;;;1496129;77;749;-63
2021/04/20 07:18:55;;;;;;;;;;;22.60;48.40;;;;;;1497528;77;1934;-64
2021/04/20 07:21:01;;;;;;;;;;;22.50;48.90;;;;;;1507362;77;783;-64
2021/04/20 07:23:17;;;;;;;;;;;22.50;49.30;;;;;;1496420;77;1184;-64
2021/04/20 07:25:36;;;;;;;;;;;22.60;49.20;;;;;;1505494;77;1845;-64
2021/04/20 07:27:57;;;;;;;;;;;22.60;49.20;;;;;;1486860;78;1031;-65
2021/04/20 07:30:17;;;;;;;;;;;22.70;49.20;;;;;;1496805;77;991;-65
2021/04/20 07:32:26;;;;;;;;;;;22.60;49.20;;;;;;1510979;77;868;-65
2021/04/20 07:34:30;;;;;;;;;;;22.60;49.10;;;;;;1507604;77;1182;-65
2021/04/20 07:36:40;;;;;;;;;;;22.60;49.00;;;;;;1498622;77;832;-64
2021/04/20 07:38:59;;;;;;;;;;;22.60;48.90;;;;;;1482329;79;1937;-64
2021/04/20 07:41:06;;;;;;;;;;;22.60;48.90;;;;;;1507655;77;720;-66
2021/04/20 07:43:28;;;;;;;;;;;22.60;48.80;;;;;;1483255;78;1267;-65
2021/04/20 07:45:33;;;;;;;;;;;22.60;48.90;;;;;;1456460;80;1936;-65
2021/04/20 07:47:36;;;;;;;;;;;22.70;48.90;;;;;;1487674;78;795;-67
2021/04/20 07:49:40;;;;;;;;;;;22.60;48.90;;;;;;1522052;77;777;-65
2021/04/20 07:51:55;;;;;;;;;;;22.60;48.70;;;;;;1525701;76;2195;-64
2021/04/20 07:54:01;;;;;;;;;;;22.60;48.60;;;;;;1525908;76;1161;-66
2021/04/20 07:56:11;;;;;;;;;;;22.60;48.60;;;;;;1513977;76;719;-66
2021/04/20 07:58:13;;;;;;;;;;;22.60;48.50;;;;;;1525911;76;670;-65
2021/04/20 08:00:17;;;;;;;;;;;22.60;48.40;;;;;;1521246;76;1899;-66
2021/04/20 08:02:20;;;;;;;;;;;22.60;48.40;;;;;;1525898;76;1851;-67
2021/04/20 08:04:24;;;;;;;;;;;22.60;48.40;;;;;;1518539;76;1379;-65
2021/04/20 08:06:27;;;;;;;;;;;22.60;48.40;;;;;;1520157;76;2043;-65
2021/04/20 08:08:33;;;;;;;;;;;22.60;48.40;;;;;;1514030;76;1136;-65
2021/04/20 08:10:44;;;;;;;;;;;22.70;48.40;;;;;;1511239;77;755;-66
2021/04/20 08:12:51;;;;;;;;;;;22.60;48.10;;;;;;1523738;76;1150;-65
2021/04/20 08:14:54;;;;;;;;;;;22.60;48.20;;;;;;1511565;76;1872;-64
2021/04/20 08:16:58;;;;;;;;;;;22.70;48.10;;;;;;1516233;76;806;-67
2021/04/20 08:19:07;;;;;;;;;;;22.80;48.10;;;;;;1519754;76;1925;-67
2021/04/20 08:21:09;;;;;;;;;;;22.80;48.10;;;;;;1516975;76;724;-64
2021/04/20 08:23:11;;;;;;;;;;;22.80;47.90;;;;;;1519865;76;1182;-64
2021/04/20 08:25:14;;;;;;;;;;;22.70;47.80;;;;;;1512405;76;752;-66
2021/04/20 08:27:34;;;;;;;;;;;22.70;47.70;;;;;;1521017;76;748;-64
2021/04/20 08:29:36;;;;;;;;;;;22.80;47.70;;;;;;1513705;76;830;-65
2021/04/20 08:31:42;;;;;;;;;;;22.70;47.70;;;;;;1516337;76;810;-65
2021/04/20 08:33:44;;;;;;;;;;;22.80;47.70;;;;;;1511772;77;1178;-66
2021/04/20 08:35:49;;;;;;;;;;;22.80;47.50;;;;;;1518810;76;689;-65
2021/04/20 08:37:55;;;;;;;;;;;22.70;47.60;;;;;;1515356;77;670;-65
2021/04/20 08:39:58;;;;;;;;;;;22.60;47.60;;;;;;1519712;76;1941;-66
2021/04/20 08:42:02;;;;;;;;;;;22.60;47.60;;;;;;1519183;76;733;-66
2021/04/20 08:44:22;;;;;;;;;;;22.60;47.40;;;;;;1519139;76;1317;-63
2021/04/20 08:46:25;;;;;;;;;;;22.50;47.60;;;;;;1522819;76;786;-64
2021/04/20 08:48:32;;;;;;;;;;;22.60;47.50;;;;;;1515821;76;836;-67
2021/04/20 08:50:35;;;;;;;;;;;22.50;47.50;;;;;;1514813;76;1831;-67
2021/04/20 08:52:48;;;;;;;;;;;22.60;47.40;;;;;;1511553;76;802;-66
2021/04/20 08:54:54;;;;;;;;;;;22.60;47.30;;;;;;1513009;76;1118;-66
2021/04/20 08:56:58;;;;;;;;;;;22.80;47.20;;;;;;1522216;76;1927;-67
2021/04/20 08:59:11;;;;;;;;;;;22.80;47.10;;;;;;1515904;76;1934;-67
2021/04/20 09:01:29;;;;;;;;;;;22.70;47.00;;;;;;1511260;76;1951;-67
2021/04/20 09:03:33;;;;;;;;;;;22.80;46.90;;;;;;1516935;76;1141;-67
2021/04/20 09:05:51;;;;;;;;;;;22.70;46.80;;;;;;1515989;76;1924;-67
2021/04/20 09:08:10;;;;;;;;;;;22.80;46.70;;;;;;1517170;76;817;-67
2021/04/20 09:10:14;;;;;;;;;;;22.80;46.50;;;;;;1518772;76;806;-64
2021/04/20 09:12:16;;;;;;;;;;;22.80;46.50;;;;;;1513232;76;727;-65
2021/04/20 09:14:22;;;;;;;;;;;22.80;46.50;;;;;;1519239;76;1110;-65
2021/04/20 09:16:43;;;;;;;;;;;22.80;46.50;;;;;;1516726;76;2033;-67
2021/04/20 09:18:46;;;;;;;;;;;22.90;46.50;;;;;;1513193;76;1907;-66
2021/04/20 09:20:50;;;;;;;;;;;22.80;46.40;;;;;;1519936;76;742;-66
2021/04/20 09:22:56;;;;;;;;;;;22.80;46.30;;;;;;1514726;76;1921;-66
2021/04/20 09:25:07;;;;;;;;;;;22.90;46.50;;;;;;1515145;76;2078;-66
2021/04/20 09:27:20;;;;;;;;;;;22.90;46.30;;;;;;1516659;76;1209;-66
2021/04/20 09:29:32;;;;;;;;;;;22.80;46.20;;;;;;1512399;76;1642;-66
2021/04/20 09:31:35;;;;;;;;;;;22.80;46.30;;;;;;1510642;76;1995;-65
2021/04/20 09:33:47;;;;;;;;;;;22.80;46.10;;;;;;1519014;76;1157;-66
2021/04/20 09:35:49;;;;;;;;;;;22.80;46.20;;;;;;1517274;76;785;-67
2021/04/20 09:37:52;;;;;;;;;;;22.70;46.10;;;;;;1523379;76;691;-65
2021/04/20 09:39:54;;;;;;;;;;;22.80;46.00;;;;;;1519753;76;1893;-66
2021/04/20 09:41:57;;;;;;;;;;;22.90;46.10;;;;;;1518430;76;794;-65
2021/04/20 09:44:06;;;;;;;;;;;22.90;46.10;;;;;;1522273;76;1233;-64
2021/04/20 09:46:10;;;;;;;;;;;22.80;45.90;;;;;;1520779;76;1147;-67
2021/04/20 09:48:22;;;;;;;;;;;22.80;46.00;;;;;;1519500;76;812;-64
2021/04/20 09:50:26;;;;;;;;;;;22.80;45.90;;;;;;1517563;76;2093;-65
2021/04/20 09:52:29;;;;;;;;;;;22.80;46.00;;;;;;1511374;76;1959;-65
2021/04/20 09:54:36;;;;;;;;;;;22.70;46.00;;;;;;1519050;76;2006;-66
2021/04/20 09:56:42;;;;;;;;;;;22.80;45.90;;;;;;1520012;76;1928;-66
2021/04/20 09:58:44;;;;;;;;;;;22.80;46.00;;;;;;1517618;76;766;-65
2021/04/20 10:00:46;;;;;;;;;;;22.80;46.00;;;;;;1520277;76;1949;-66
2021/04/20 10:03:01;;;;;;;;;;;22.70;46.00;;;;;;1522123;76;1193;-66
2021/04/20 10:05:23;;;;;;;;;;;22.70;45.90;;;;;;1483455;77;1178;-68
2021/04/20 10:07:43;;;;;;;;;;;22.70;45.80;;;;;;1517949;76;649;-66
2021/04/20 10:10:05;;;;;;;;;;;22.70;46.00;;;;;;1516177;76;740;-67
2021/04/20 10:12:08;;;;;;;;;;;22.60;46.00;;;;;;1523957;76;667;-66
2021/04/20 10:14:29;;;;;;;;;;;22.60;46.00;;;;;;1519965;76;1189;-64
2021/04/20 10:16:33;;;;;;;;;;;22.60;46.10;;;;;;1520086;76;779;-64
2021/04/20 10:18:54;;;;;;;;;;;22.50;46.10;;;;;;1518810;76;1424;-66
2021/04/20 10:20:57;;;;;;;;;;;22.70;46.10;;;;;;1522245;76;2005;-65
2021/04/20 10:23:07;;;;;;;;;;;22.60;45.90;;;;;;1523600;76;1133;-66
2021/04/20 10:25:29;;;;;;;;;;;22.60;45.90;;;;;;1502902;76;1997;-65
2021/04/20 10:27:30;;;;;;;;;;;22.70;46.00;;;;;;1512554;76;758;-65
2021/04/20 10:29:34;;;;;;;;;;;22.70;45.90;;;;;;1516491;76;799;-65
2021/04/20 10:31:36;;;;;;;;;;;22.80;45.80;;;;;;1520875;77;772;-66
2021/04/20 10:33:38;;;;;;;;;;;22.70;45.80;;;;;;1515406;76;1156;-65
2021/04/20 10:35:40;;;;;;;;;;;22.80;45.70;;;;;;1516648;76;749;-64
2021/04/20 10:37:44;;;;;;;;;;;22.80;45.60;;;;;;1521207;76;748;-65
2021/04/20 10:39:46;;;;;;;;;;;22.80;45.50;;;;;;1515038;76;1929;-66
2021/04/20 10:41:48;;;;;;;;;;;22.80;45.50;;;;;;1513824;76;759;-63
2021/04/20 10:43:51;;;;;;;;;;;22.90;45.50;;;;;;1519649;76;1147;-66
2021/04/20 10:45:53;;;;;;;;;;;22.80;45.40;;;;;;1519316;77;789;-66
2021/04/20 10:47:55;;;;;;;;;;;22.80;45.30;;;;;;1522598;76;783;-67
2021/04/20 10:49:58;;;;;;;;;;;22.80;45.30;;;;;;1521188;76;817;-66
2021/04/20 10:52:00;;;;;;;;;;;22.80;45.30;;;;;;1522733;76;794;-66
2021/04/20 10:54:02;;;;;;;;;;;22.80;45.30;;;;;;1521072;76;1151;-66
2021/04/20 10:56:05;;;;;;;;;;;22.80;45.30;;;;;;1516051;76;785;-66
2021/04/20 10:58:08;;;;;;;;;;;22.80;45.20;;;;;;1522258;76;747;-67
2021/04/20 11:00:11;;;;;;;;;;;22.80;45.30;;;;;;1512106;76;1904;-63
2021/04/20 11:02:14;;;;;;;;;;;22.80;45.30;;;;;;1513157;77;731;-63
2021/04/20 11:04:16;;;;;;;;;;;22.70;45.30;;;;;;1506672;76;1374;-64
2021/04/20 11:06:36;;;;;;;;;;;22.70;45.20;;;;;;1485706;78;1290;-65
2021/04/20 11:08:42;;;;;;;;;;;22.70;45.30;;;;;;1498481;77;697;-65
2021/04/20 11:10:44;;;;;;;;;;;22.70;45.20;;;;;;1500185;77;1146;-66
2021/04/20 11:12:47;;;;;;;;;;;22.70;45.30;;;;;;1501774;77;1184;-65
2021/04/20 11:14:50;;;;;;;;;;;22.70;45.20;;;;;;1501935;77;771;-66
2021/04/20 11:16:52;;;;;;;;;;;22.70;45.20;;;;;;1502354;77;960;-64
2021/04/20 11:18:56;;;;;;;;;;;22.60;45.20;;;;;;1502473;77;738;-64
2021/04/20 11:20:59;;;;;;;;;;;22.80;45.20;;;;;;1505714;77;1932;-65
2021/04/20 11:23:03;;;;;;;;;;;22.70;45.10;;;;;;1502141;77;1141;-65
2021/04/20 11:25:06;;;;;;;;;;;22.60;45.10;;;;;;1485586;77;1547;-66
2021/04/20 11:27:09;;;;;;;;;;;22.70;45.20;;;;;;1501033;77;818;-65
2021/04/20 11:29:12;;;;;;;;;;;22.70;45.20;;;;;;1498422;77;800;-64
2021/04/20 11:31:15;;;;;;;;;;;22.70;45.10;;;;;;1502868;77;898;-66
2021/04/20 11:33:19;;;;;;;;;;;22.70;45.00;;;;;;1506084;77;1867;-65
2021/04/20 11:35:21;;;;;;;;;;;22.80;44.90;;;;;;1500206;77;735;-66
2021/04/20 11:37:24;;;;;;;;;;;22.70;44.90;;;;;;1501900;77;713;-64
2021/04/20 11:39:27;;;;;;;;;;;22.60;44.80;;;;;;1501300;77;829;-63
2021/04/20 11:41:30;;;;;;;;;;;22.70;44.90;;;;;;1470515;77;1940;-65
2021/04/20 11:43:32;;;;;;;;;;;22.70;44.90;;;;;;1504556;77;1172;-65
2021/04/20 11:45:37;;;;;;;;;;;22.70;44.90;;;;;;1505915;77;1089;-63
2021/04/20 11:47:50;;;;;;;;;;;22.60;44.90;;;;;;1498988;77;805;-64
2021/04/20 11:49:54;;;;;;;;;;;22.70;44.90;;;;;;1493053;77;1766;-66
2021/04/20 11:51:55;;;;;;;;;;;22.60;44.80;;;;;;1502690;77;1829;-66
2021/04/20 11:53:57;;;;;;;;;;;22.70;44.90;;;;;;1498249;77;1138;-65
2021/04/20 11:56:00;;;;;;;;;;;22.70;44.90;;;;;;1505960;77;775;-66
2021/04/20 11:58:06;;;;;;;;;;;22.70;44.90;;;;;;1502424;77;778;-67
2021/04/20 12:00:09;;;;;;;;;;;22.70;45.00;;;;;;1511543;77;1907;-65
2021/04/20 12:02:11;;;;;;;;;;;22.80;44.90;;;;;;1501789;77;696;-64
2021/04/20 12:04:12;;;;;;;;;;;22.90;45.00;;;;;;1505282;77;1134;-65
2021/04/20 12:06:14;;;;;;;;;;;22.80;45.00;;;;;;1504979;77;851;-66
2021/04/20 12:08:27;;;;;;;;;;;22.90;45.10;;;;;;1498125;77;911;-65
2021/04/20 12:10:29;;;;;;;;;;;22.90;45.10;;;;;;1504198;77;822;-65
2021/04/20 12:12:32;;;;;;;;;;;22.80;44.90;;;;;;1508067;77;720;-65
2021/04/20 12:14:38;;;;;;;;;;;22.90;45.10;;;;;;1506014;77;1669;-64
2021/04/20 12:16:40;;;;;;;;;;;22.80;44.90;;;;;;1504095;77;746;-65
2021/04/20 12:18:48;;;;;;;;;;;22.70;45.00;;;;;;1501442;77;781;-65
2021/04/20 12:20:50;;;;;;;;;;;22.70;45.20;;;;;;1503060;77;1929;-65